sensor_id;sensor_type;location;lat;lon;timestamp;pressure;altitude;pressure_sealevel;temperature;humidity
47524;BME280;33253;42.144;25.884;2023-11-19T00:01:11;99891.13;;;5.17;100.00
47524;BME280;33253;42.144;25.884;2023-11-19T00:03:37;99976.31;;;5.67;100.00
47524;BME280;33253;42.144;25.884;2023-11-19T00:06:02;99904.72;;;5.34;100.00
47524;BME280;33253;42.144;25.884;2023-11-19T00:08:29;99949.25;;;5.73;100.00
47524;BME280;33253;42.144;25.884;2023-11-19T00:10:55;99971.84;;;5.81;100.00
47524;BME280;33253;42.144;25.884;2023-11-19T00:13:20;99974.56;;;5.85;100.00
47524;BME280;33253;42.144;25.884;2023-11-19T00:15:46;99970.88;;;5.79;100.00
47524;BME280;33253;42.144;25.884;2023-11-19T00:18:12;99982.31;;;5.86;100.00
47524;BME280;33253;42.144;25.884;2023-11-19T00:20:39;99989.78;;;5.81;100.00
47524;BME280;33253;42.144;25.884;2023-11-19T00:23:05;99981.72;;;5.74;100.00
47524;BME280;33253;42.144;25.884;2023-11-19T00:25:30;99976.97;;;5.63;100.00
47524;BME280;33253;42.144;25.884;2023-11-19T00:27:55;100000.75;;;5.79;100.00
47524;BME280;33253;42.144;25.884;2023-11-19T00:30:21;99963.78;;;5.56;100.00
47524;BME280;33253;42.144;25.884;2023-11-19T00:32:47;100015.25;;;5.78;100.00
47524;BME280;33253;42.144;25.884;2023-11-19T00:35:13;99937.88;;;5.31;100.00
47524;BME280;33253;42.144;25.884;2023-11-19T00:37:42;100002.34;;;5.77;100.00
47524;BME280;33253;42.144;25.884;2023-11-19T00:40:11;99931.47;;;5.23;100.00
47524;BME280;33253;42.144;25.884;2023-11-19T00:42:37;100008.00;;;5.70;100.00
47524;BME280;33253;42.144;25.884;2023-11-19T00:45:03;100003.31;;;5.61;100.00
47524;BME280;33253;42.144;25.884;2023-11-19T00:47:28;100023.81;;;5.61;100.00
47524;BME280;33253;42.144;25.884;2023-11-19T00:49:54;100018.69;;;5.61;100.00
47524;BME280;33253;42.144;25.884;2023-11-19T00:52:19;100029.13;;;5.65;100.00
47524;BME280;33253;42.144;25.884;2023-11-19T00:54:45;100029.25;;;5.50;100.00
47524;BME280;33253;42.144;25.884;2023-11-19T00:57:11;100013.44;;;5.41;100.00
47524;BME280;33253;42.144;25.884;2023-11-19T00:59:36;99922.22;;;4.74;100.00
47524;BME280;33253;42.144;25.884;2023-11-19T01:02:02;100044.63;;;5.34;100.00
47524;BME280;33253;42.144;25.884;2023-11-19T01:04:33;99987.50;;;5.00;100.00
47524;BME280;33253;42.144;25.884;2023-11-19T01:07:01;100029.63;;;5.24;100.00
47524;BME280;33253;42.144;25.884;2023-11-19T01:09:29;99957.16;;;4.74;100.00
47524;BME280;33253;42.144;25.884;2023-11-19T01:11:54;100004.19;;;5.10;100.00
47524;BME280;33253;42.144;25.884;2023-11-19T01:14:20;100049.50;;;5.29;100.00
47524;BME280;33253;42.144;25.884;2023-11-19T01:16:45;100067.75;;;5.35;100.00
47524;BME280;33253;42.144;25.884;2023-11-19T01:19:11;100067.13;;;5.40;100.00
47524;BME280;33253;42.144;25.884;2023-11-19T01:21:36;100068.16;;;5.43;100.00
47524;BME280;33253;42.144;25.884;2023-11-19T01:24:02;100047.19;;;5.34;100.00
47524;BME280;33253;42.144;25.884;2023-11-19T01:26:29;100080.06;;;5.43;100.00
47524;BME280;33253;42.144;25.884;2023-11-19T01:28:56;100075.84;;;5.43;100.00
47524;BME280;33253;42.144;25.884;2023-11-19T01:31:21;100082.88;;;5.47;100.00
47524;BME280;33253;42.144;25.884;2023-11-19T01:36:46;100072.56;;;5.46;100.00
47524;BME280;33253;42.144;25.884;2023-11-19T01:39:14;100062.63;;;5.35;100.00
47524;BME280;33253;42.144;25.884;2023-11-19T01:41:41;100064.47;;;5.38;100.00
47524;BME280;33253;42.144;25.884;2023-11-19T01:44:07;100043.59;;;5.30;100.00
47524;BME280;33253;42.144;25.884;2023-11-19T01:46:32;99994.13;;;4.97;100.00
47524;BME280;33253;42.144;25.884;2023-11-19T01:48:59;100032.81;;;5.19;100.00
47524;BME280;33253;42.144;25.884;2023-11-19T01:51:25;100059.44;;;5.40;100.00
47524;BME280;33253;42.144;25.884;2023-11-19T01:53:51;100034.88;;;5.27;100.00
47524;BME280;33253;42.144;25.884;2023-11-19T01:56:17;100064.56;;;5.40;100.00
47524;BME280;33253;42.144;25.884;2023-11-19T01:58:43;100048.56;;;5.44;100.00
47524;BME280;33253;42.144;25.884;2023-11-19T02:01:10;100035.06;;;5.30;100.00
47524;BME280;33253;42.144;25.884;2023-11-19T02:03:36;100043.44;;;5.44;100.00
47524;BME280;33253;42.144;25.884;2023-11-19T02:06:03;100023.91;;;5.29;100.00
47524;BME280;33253;42.144;25.884;2023-11-19T02:08:29;100036.66;;;5.28;100.00
47524;BME280;33253;42.144;25.884;2023-11-19T02:10:55;100042.41;;;5.40;100.00
47524;BME280;33253;42.144;25.884;2023-11-19T02:13:24;99932.75;;;4.80;100.00
47524;BME280;33253;42.144;25.884;2023-11-19T02:15:50;100018.66;;;5.26;100.00
47524;BME280;33253;42.144;25.884;2023-11-19T02:18:27;99979.81;;;5.00;100.00
47524;BME280;33253;42.144;25.884;2023-11-19T02:20:57;100026.97;;;5.39;100.00
47524;BME280;33253;42.144;25.884;2023-11-19T02:23:23;100009.59;;;5.33;100.00
47524;BME280;33253;42.144;25.884;2023-11-19T02:28:48;100007.69;;;5.29;100.00
47524;BME280;33253;42.144;25.884;2023-11-19T02:31:15;100012.41;;;5.38;100.00
47524;BME280;33253;42.144;25.884;2023-11-19T02:33:40;100036.31;;;5.55;100.00
47524;BME280;33253;42.144;25.884;2023-11-19T02:36:07;100034.72;;;5.40;100.00
47524;BME280;33253;42.144;25.884;2023-11-19T02:38:36;100026.53;;;5.47;100.00
47524;BME280;33253;42.144;25.884;2023-11-19T02:41:05;100016.53;;;5.52;100.00
47524;BME280;33253;42.144;25.884;2023-11-19T02:43:34;100010.22;;;5.45;100.00
47524;BME280;33253;42.144;25.884;2023-11-19T02:46:04;100033.38;;;5.65;100.00
47524;BME280;33253;42.144;25.884;2023-11-19T02:48:34;100039.06;;;5.59;100.00
47524;BME280;33253;42.144;25.884;2023-11-19T02:51:04;100026.25;;;5.59;100.00
47524;BME280;33253;42.144;25.884;2023-11-19T02:53:30;100018.28;;;5.53;100.00
47524;BME280;33253;42.144;25.884;2023-11-19T02:55:56;100027.47;;;5.49;100.00
47524;BME280;33253;42.144;25.884;2023-11-19T02:58:28;100012.22;;;5.34;100.00
47524;BME280;33253;42.144;25.884;2023-11-19T03:00:54;100037.19;;;5.39;100.00
47524;BME280;33253;42.144;25.884;2023-11-19T03:03:26;100025.69;;;5.30;100.00
47524;BME280;33253;42.144;25.884;2023-11-19T03:06:04;100051.59;;;5.37;100.00
47524;BME280;33253;42.144;25.884;2023-11-19T03:08:30;100031.78;;;5.32;100.00
47524;BME280;33253;42.144;25.884;2023-11-19T03:10:55;100049.59;;;5.47;100.00
47524;BME280;33253;42.144;25.884;2023-11-19T03:13:21;100062.47;;;5.49;100.00
47524;BME280;33253;42.144;25.884;2023-11-19T03:15:47;100040.81;;;5.42;100.00
47524;BME280;33253;42.144;25.884;2023-11-19T03:18:12;100055.75;;;5.51;100.00
47524;BME280;33253;42.144;25.884;2023-11-19T03:20:38;100059.84;;;5.47;100.00
47524;BME280;33253;42.144;25.884;2023-11-19T03:23:03;100062.31;;;5.46;100.00
47524;BME280;33253;42.144;25.884;2023-11-19T03:25:29;100041.75;;;5.28;100.00
47524;BME280;33253;42.144;25.884;2023-11-19T03:28:02;100062.31;;;5.46;100.00
47524;BME280;33253;42.144;25.884;2023-11-19T03:30:31;100067.75;;;5.35;100.00
47524;BME280;33253;42.144;25.884;2023-11-19T03:32:57;100074.28;;;5.47;100.00
47524;BME280;33253;42.144;25.884;2023-11-19T03:35:23;100025.13;;;5.19;100.00
47524;BME280;33253;42.144;25.884;2023-11-19T03:37:50;100049.28;;;5.41;100.00
47524;BME280;33253;42.144;25.884;2023-11-19T03:40:17;100078.00;;;5.52;100.00
47524;BME280;33253;42.144;25.884;2023-11-19T03:42:42;100051.13;;;5.44;100.00
47524;BME280;33253;42.144;25.884;2023-11-19T03:45:09;100074.13;;;5.60;100.00
47524;BME280;33253;42.144;25.884;2023-11-19T03:47:35;100063.50;;;5.53;100.00
47524;BME280;33253;42.144;25.884;2023-11-19T03:50:01;100073.19;;;5.58;100.00
47524;BME280;33253;42.144;25.884;2023-11-19T03:52:27;100079.16;;;5.59;100.00
47524;BME280;33253;42.144;25.884;2023-11-19T03:54:53;100086.91;;;5.60;100.00
47524;BME280;33253;42.144;25.884;2023-11-19T03:57:20;100076.69;;;5.60;100.00
47524;BME280;33253;42.144;25.884;2023-11-19T03:59:46;100068.63;;;5.53;100.00
47524;BME280;33253;42.144;25.884;2023-11-19T04:02:31;100071.00;;;5.49;100.00
47524;BME280;33253;42.144;25.884;2023-11-19T04:04:57;100084.28;;;5.59;100.00
47524;BME280;33253;42.144;25.884;2023-11-19T04:07:22;100096.22;;;5.58;100.00
47524;BME280;33253;42.144;25.884;2023-11-19T04:09:48;100063.59;;;5.38;100.00
47524;BME280;33253;42.144;25.884;2023-11-19T04:12:13;100101.34;;;5.58;100.00
47524;BME280;33253;42.144;25.884;2023-11-19T04:14:39;100112.38;;;5.57;100.00
47524;BME280;33253;42.144;25.884;2023-11-19T04:17:05;100110.94;;;5.62;100.00
47524;BME280;33253;42.144;25.884;2023-11-19T04:19:30;100141.91;;;5.67;100.00
47524;BME280;33253;42.144;25.884;2023-11-19T04:21:58;100090.16;;;5.23;100.00
47524;BME280;33253;42.144;25.884;2023-11-19T04:24:23;100119.38;;;5.43;100.00
47524;BME280;33253;42.144;25.884;2023-11-19T04:26:49;100152.31;;;5.54;100.00
47524;BME280;33253;42.144;25.884;2023-11-19T04:29:16;100160.72;;;5.51;100.00
47524;BME280;33253;42.144;25.884;2023-11-19T04:31:44;100181.19;;;5.67;100.00
47524;BME280;33253;42.144;25.884;2023-11-19T04:34:11;100185.78;;;5.73;100.00
47524;BME280;33253;42.144;25.884;2023-11-19T04:36:37;100193.59;;;5.76;100.00
47524;BME280;33253;42.144;25.884;2023-11-19T04:39:03;100200.00;;;5.85;100.00
47524;BME280;33253;42.144;25.884;2023-11-19T04:41:47;100198.31;;;5.85;100.00
47524;BME280;33253;42.144;25.884;2023-11-19T04:44:17;100211.06;;;6.00;100.00
47524;BME280;33253;42.144;25.884;2023-11-19T04:46:43;100197.97;;;5.95;100.00
47524;BME280;33253;42.144;25.884;2023-11-19T04:49:09;100220.75;;;6.06;100.00
47524;BME280;33253;42.144;25.884;2023-11-19T04:51:42;100224.59;;;6.14;100.00
47524;BME280;33253;42.144;25.884;2023-11-19T04:54:15;100228.56;;;6.25;100.00
47524;BME280;33253;42.144;25.884;2023-11-19T04:56:45;100242.59;;;6.32;100.00
47524;BME280;33253;42.144;25.884;2023-11-19T04:59:11;100160.06;;;5.88;100.00
47524;BME280;33253;42.144;25.884;2023-11-19T05:01:37;100226.84;;;6.42;100.00
47524;BME280;33253;42.144;25.884;2023-11-19T05:04:03;100238.72;;;6.40;100.00
47524;BME280;33253;42.144;25.884;2023-11-19T05:06:29;100241.38;;;6.42;100.00
47524;BME280;33253;42.144;25.884;2023-11-19T05:08:56;100237.09;;;6.24;100.00
47524;BME280;33253;42.144;25.884;2023-11-19T05:11:22;100238.69;;;6.22;100.00
47524;BME280;33253;42.144;25.884;2023-11-19T05:13:48;100246.50;;;6.25;100.00
47524;BME280;33253;42.144;25.884;2023-11-19T05:16:13;100256.06;;;6.11;100.00
47524;BME280;33253;42.144;25.884;2023-11-19T05:18:40;100250.91;;;5.95;100.00
47524;BME280;33253;42.144;25.884;2023-11-19T05:21:06;100264.47;;;6.09;100.00
47524;BME280;33253;42.144;25.884;2023-11-19T05:23:32;100174.25;;;5.65;100.00
47524;BME280;33253;42.144;25.884;2023-11-19T05:26:00;100240.69;;;5.95;100.00
47524;BME280;33253;42.144;25.884;2023-11-19T05:28:26;100201.38;;;5.61;100.00
47524;BME280;33253;42.144;25.884;2023-11-19T05:30:51;100240.44;;;5.90;100.00
47524;BME280;33253;42.144;25.884;2023-11-19T05:33:17;100178.66;;;5.51;100.00
47524;BME280;33253;42.144;25.884;2023-11-19T05:35:43;100269.34;;;6.04;100.00
47524;BME280;33253;42.144;25.884;2023-11-19T05:38:08;100274.25;;;5.99;100.00
47524;BME280;33253;42.144;25.884;2023-11-19T05:40:35;100261.09;;;5.93;100.00
47524;BME280;33253;42.144;25.884;2023-11-19T05:43:01;100216.41;;;5.55;100.00
47524;BME280;33253;42.144;25.884;2023-11-19T05:45:26;100219.16;;;5.58;100.00
47524;BME280;33253;42.144;25.884;2023-11-19T05:47:52;100245.16;;;5.66;100.00
47524;BME280;33253;42.144;25.884;2023-11-19T05:50:18;100294.63;;;5.98;100.00
47524;BME280;33253;42.144;25.884;2023-11-19T05:52:44;100309.06;;;5.96;100.00
47524;BME280;33253;42.144;25.884;2023-11-19T05:55:09;100282.88;;;5.85;100.00
47524;BME280;33253;42.144;25.884;2023-11-19T05:57:37;100297.91;;;5.95;100.00
47524;BME280;33253;42.144;25.884;2023-11-19T06:00:03;100280.63;;;5.91;100.00
47524;BME280;33253;42.144;25.884;2023-11-19T06:02:32;100262.38;;;5.69;100.00
47524;BME280;33253;42.144;25.884;2023-11-19T06:04:58;100313.91;;;6.06;100.00
47524;BME280;33253;42.144;25.884;2023-11-19T06:07:24;100258.28;;;5.72;100.00
47524;BME280;33253;42.144;25.884;2023-11-19T06:09:50;100345.19;;;6.01;100.00
47524;BME280;33253;42.144;25.884;2023-11-19T06:12:15;100231.44;;;5.49;100.00
47524;BME280;33253;42.144;25.884;2023-11-19T06:14:41;100311.63;;;5.96;100.00
47524;BME280;33253;42.144;25.884;2023-11-19T06:17:06;100318.69;;;6.00;100.00
47524;BME280;33253;42.144;25.884;2023-11-19T06:19:33;100317.00;;;6.01;100.00
47524;BME280;33253;42.144;25.884;2023-11-19T06:21:59;100297.84;;;5.94;100.00
47524;BME280;33253;42.144;25.884;2023-11-19T06:24:25;100313.81;;;6.05;100.00
47524;BME280;33253;42.144;25.884;2023-11-19T06:26:50;100304.00;;;5.97;100.00
47524;BME280;33253;42.144;25.884;2023-11-19T06:29:16;100274.63;;;5.91;100.00
47524;BME280;33253;42.144;25.884;2023-11-19T06:31:45;100290.44;;;5.98;100.00
47524;BME280;33253;42.144;25.884;2023-11-19T06:34:11;100302.44;;;5.99;100.00
47524;BME280;33253;42.144;25.884;2023-11-19T06:36:36;100309.09;;;6.12;100.00
47524;BME280;33253;42.144;25.884;2023-11-19T06:39:02;100310.69;;;6.10;100.00
47524;BME280;33253;42.144;25.884;2023-11-19T06:41:27;100318.88;;;6.20;100.00
47524;BME280;33253;42.144;25.884;2023-11-19T06:43:54;100322.38;;;6.22;99.49
47524;BME280;33253;42.144;25.884;2023-11-19T06:46:20;100335.91;;;6.19;100.00
47524;BME280;33253;42.144;25.884;2023-11-19T06:48:46;100316.06;;;6.15;100.00
47524;BME280;33253;42.144;25.884;2023-11-19T06:51:12;100338.97;;;6.28;100.00
47524;BME280;33253;42.144;25.884;2023-11-19T06:53:38;100238.53;;;5.70;100.00
47524;BME280;33253;42.144;25.884;2023-11-19T06:56:05;100322.56;;;6.08;99.33
47524;BME280;33253;42.144;25.884;2023-11-19T06:58:39;100223.94;;;5.52;99.47
47524;BME280;33253;42.144;25.884;2023-11-19T07:01:06;100335.69;;;6.14;99.89
47524;BME280;33253;42.144;25.884;2023-11-19T07:03:34;100323.94;;;6.18;100.00
47524;BME280;33253;42.144;25.884;2023-11-19T07:06:00;100332.06;;;6.27;99.87
47524;BME280;33253;42.144;25.884;2023-11-19T07:08:25;100331.03;;;6.40;98.50
47524;BME280;33253;42.144;25.884;2023-11-19T07:10:52;100295.72;;;6.35;97.50
47524;BME280;33253;42.144;25.884;2023-11-19T07:13:17;100346.75;;;6.81;97.47
47524;BME280;33253;42.144;25.884;2023-11-19T07:15:44;100357.69;;;6.95;96.84
47524;BME280;33253;42.144;25.884;2023-11-19T07:18:09;100351.94;;;7.17;96.68
47524;BME280;33253;42.144;25.884;2023-11-19T07:20:37;100355.47;;;7.37;96.08
47524;BME280;33253;42.144;25.884;2023-11-19T07:23:05;100354.44;;;7.34;96.45
47524;BME280;33253;42.144;25.884;2023-11-19T07:25:31;100342.50;;;7.34;94.93
47524;BME280;33253;42.144;25.884;2023-11-19T07:27:56;100342.84;;;7.42;92.01
47524;BME280;33253;42.144;25.884;2023-11-19T07:30:23;100348.34;;;7.50;92.29
47524;BME280;33253;42.144;25.884;2023-11-19T07:32:48;100346.59;;;7.49;91.80
47524;BME280;33253;42.144;25.884;2023-11-19T07:35:14;100232.97;;;6.99;91.64
47524;BME280;33253;42.144;25.884;2023-11-19T07:37:41;100317.88;;;7.57;91.14
47524;BME280;33253;42.144;25.884;2023-11-19T07:40:08;100343.69;;;7.78;91.44
47524;BME280;33253;42.144;25.884;2023-11-19T07:42:33;100330.44;;;7.51;90.93
47524;BME280;33253;42.144;25.884;2023-11-19T07:44:58;100357.44;;;7.61;92.00
47524;BME280;33253;42.144;25.884;2023-11-19T07:47:24;100335.50;;;7.50;91.28
47524;BME280;33253;42.144;25.884;2023-11-19T07:49:50;100364.25;;;7.78;90.96
47524;BME280;33253;42.144;25.884;2023-11-19T07:52:16;100369.91;;;7.89;92.06
47524;BME280;33253;42.144;25.884;2023-11-19T07:54:41;100390.09;;;7.64;93.02
47524;BME280;33253;42.144;25.884;2023-11-19T07:57:07;100383.94;;;7.60;96.32
47524;BME280;33253;42.144;25.884;2023-11-19T07:59:34;100396.94;;;7.45;97.90
47524;BME280;33253;42.144;25.884;2023-11-19T08:01:59;100372.78;;;7.23;98.35
47524;BME280;33253;42.144;25.884;2023-11-19T08:04:25;100405.31;;;7.23;98.39
47524;BME280;33253;42.144;25.884;2023-11-19T08:06:50;100410.44;;;7.23;97.83
47524;BME280;33253;42.144;25.884;2023-11-19T08:09:16;100413.13;;;7.26;97.71
47524;BME280;33253;42.144;25.884;2023-11-19T08:11:41;100398.91;;;7.33;97.85
47524;BME280;33253;42.144;25.884;2023-11-19T08:14:07;100380.66;;;7.26;96.89
47524;BME280;33253;42.144;25.884;2023-11-19T08:16:33;100405.16;;;7.56;99.36
47524;BME280;33253;42.144;25.884;2023-11-19T08:18:59;100336.03;;;7.24;97.75
47524;BME280;33253;42.144;25.884;2023-11-19T08:21:24;100402.81;;;7.60;97.70
47524;BME280;33253;42.144;25.884;2023-11-19T08:23:52;100344.69;;;7.44;97.16
47524;BME280;33253;42.144;25.884;2023-11-19T08:26:17;100397.88;;;7.83;96.72
47524;BME280;33253;42.144;25.884;2023-11-19T08:28:43;100374.34;;;7.74;95.91
47524;BME280;33253;42.144;25.884;2023-11-19T08:31:09;100323.78;;;7.37;94.81
47524;BME280;33253;42.144;25.884;2023-11-19T08:33:35;100388.41;;;7.82;95.39
47524;BME280;33253;42.144;25.884;2023-11-19T08:36:01;100410.03;;;8.05;91.03
47524;BME280;33253;42.144;25.884;2023-11-19T08:38:26;100421.63;;;8.15;89.14
47524;BME280;33253;42.144;25.884;2023-11-19T08:40:51;100418.06;;;8.31;89.23
47524;BME280;33253;42.144;25.884;2023-11-19T08:43:17;100413.41;;;8.42;88.99
47524;BME280;33253;42.144;25.884;2023-11-19T08:45:44;100395.78;;;8.32;87.17
47524;BME280;33253;42.144;25.884;2023-11-19T08:48:10;100421.16;;;8.62;87.31
47524;BME280;33253;42.144;25.884;2023-11-19T08:50:36;100422.97;;;8.84;87.09
47524;BME280;33253;42.144;25.884;2023-11-19T08:53:01;100423.81;;;9.04;87.49
47524;BME280;33253;42.144;25.884;2023-11-19T08:55:27;100373.59;;;8.73;85.00
47524;BME280;33253;42.144;25.884;2023-11-19T08:57:52;100417.44;;;9.15;86.42
47524;BME280;33253;42.144;25.884;2023-11-19T09:00:18;100422.13;;;9.26;85.52
47524;BME280;33253;42.144;25.884;2023-11-19T09:02:43;100416.88;;;9.22;86.64
47524;BME280;33253;42.144;25.884;2023-11-19T09:05:10;100424.56;;;9.42;85.88
47524;BME280;33253;42.144;25.884;2023-11-19T09:07:35;100423.47;;;9.37;85.68
47524;BME280;33253;42.144;25.884;2023-11-19T09:10:01;100422.22;;;9.48;85.28
47524;BME280;33253;42.144;25.884;2023-11-19T09:12:26;100374.34;;;9.11;85.62
47524;BME280;33253;42.144;25.884;2023-11-19T09:14:52;100426.78;;;9.55;87.84
47524;BME280;33253;42.144;25.884;2023-11-19T09:17:18;100404.88;;;9.67;84.34
47524;BME280;33253;42.144;25.884;2023-11-19T09:19:43;100423.59;;;9.84;81.21
47524;BME280;33253;42.144;25.884;2023-11-19T09:22:09;100415.84;;;9.61;81.10
47524;BME280;33253;42.144;25.884;2023-11-19T09:24:36;100389.63;;;9.71;80.42
47524;BME280;33253;42.144;25.884;2023-11-19T09:27:01;100328.38;;;9.43;80.19
47524;BME280;33253;42.144;25.884;2023-11-19T09:29:26;100417.34;;;10.00;79.09
47524;BME280;33253;42.144;25.884;2023-11-19T09:31:52;100387.50;;;9.84;79.86
47524;BME280;33253;42.144;25.884;2023-11-19T09:34:17;100394.16;;;10.00;79.02
47524;BME280;33253;42.144;25.884;2023-11-19T09:36:43;100374.56;;;10.05;80.41
47524;BME280;33253;42.144;25.884;2023-11-19T09:39:12;100358.63;;;9.93;75.59
47524;BME280;33253;42.144;25.884;2023-11-19T09:41:43;100369.03;;;10.18;78.09
47524;BME280;33253;42.144;25.884;2023-11-19T09:44:10;100382.38;;;10.31;77.15
47524;BME280;33253;42.144;25.884;2023-11-19T09:46:38;100377.75;;;10.45;75.80
47524;BME280;33253;42.144;25.884;2023-11-19T09:49:04;100302.06;;;10.22;77.39
47524;BME280;33253;42.144;25.884;2023-11-19T09:51:32;100385.56;;;10.71;77.25
47524;BME280;33253;42.144;25.884;2023-11-19T09:53:58;100391.59;;;10.71;72.62
47524;BME280;33253;42.144;25.884;2023-11-19T09:56:24;100384.78;;;10.73;74.49
47524;BME280;33253;42.144;25.884;2023-11-19T09:58:49;100380.31;;;10.69;74.38
47524;BME280;33253;42.144;25.884;2023-11-19T10:01:15;100246.47;;;9.81;74.66
47524;BME280;33253;42.144;25.884;2023-11-19T10:03:41;100365.38;;;10.60;74.83
47524;BME280;33253;42.144;25.884;2023-11-19T10:06:10;100377.66;;;10.92;72.25
47524;BME280;33253;42.144;25.884;2023-11-19T10:08:41;100379.16;;;10.85;73.21
47524;BME280;33253;42.144;25.884;2023-11-19T10:11:07;100365.84;;;10.98;72.21
47524;BME280;33253;42.144;25.884;2023-11-19T10:13:37;100378.78;;;11.00;72.33
47524;BME280;33253;42.144;25.884;2023-11-19T10:16:10;100367.47;;;10.96;71.61
47524;BME280;33253;42.144;25.884;2023-11-19T10:18:44;100364.53;;;11.11;75.01
47524;BME280;33253;42.144;25.884;2023-11-19T10:21:12;100367.09;;;11.11;71.21
47524;BME280;33253;42.144;25.884;2023-11-19T10:23:54;100364.88;;;11.22;70.76
47524;BME280;33253;42.144;25.884;2023-11-19T10:26:22;100366.81;;;11.02;68.47
47524;BME280;33253;42.144;25.884;2023-11-19T10:28:48;100372.34;;;11.13;69.84
47524;BME280;33253;42.144;25.884;2023-11-19T10:31:15;100359.88;;;11.01;66.46
47524;BME280;33253;42.144;25.884;2023-11-19T10:33:40;100341.75;;;10.99;66.69
47524;BME280;33253;42.144;25.884;2023-11-19T10:36:07;100350.53;;;11.05;66.29
47524;BME280;33253;42.144;25.884;2023-11-19T10:38:32;100342.22;;;11.13;66.07
47524;BME280;33253;42.144;25.884;2023-11-19T10:40:58;100273.06;;;10.79;66.23
47524;BME280;33253;42.144;25.884;2023-11-19T10:43:24;100335.78;;;11.28;64.82
47524;BME280;33253;42.144;25.884;2023-11-19T10:46:11;100247.16;;;10.76;65.86
47524;BME280;33253;42.144;25.884;2023-11-19T10:48:37;100192.75;;;10.44;64.20
47524;BME280;33253;42.144;25.884;2023-11-19T10:51:05;100253.50;;;10.86;64.35
47524;BME280;33253;42.144;25.884;2023-11-19T10:53:36;100333.00;;;11.49;64.32
47524;BME280;33253;42.144;25.884;2023-11-19T10:56:02;100330.13;;;11.40;62.56
47524;BME280;33253;42.144;25.884;2023-11-19T10:58:32;100323.34;;;11.16;63.12
47524;BME280;33253;42.144;25.884;2023-11-19T11:01:02;100329.47;;;11.20;64.22
47524;BME280;33253;42.144;25.884;2023-11-19T11:03:36;100301.88;;;11.19;63.71
47524;BME280;33253;42.144;25.884;2023-11-19T11:06:05;100316.72;;;11.24;65.12
47524;BME280;33253;42.144;25.884;2023-11-19T11:08:51;100238.50;;;10.75;62.98
47524;BME280;33253;42.144;25.884;2023-11-19T11:11:16;100306.97;;;11.15;63.39
47524;BME280;33253;42.144;25.884;2023-11-19T11:13:42;100318.28;;;11.19;63.03
47524;BME280;33253;42.144;25.884;2023-11-19T11:16:08;100317.69;;;11.28;65.30
47524;BME280;33253;42.144;25.884;2023-11-19T11:18:34;100309.84;;;11.25;66.52
47524;BME280;33253;42.144;25.884;2023-11-19T11:26:35;100308.28;;;11.30;69.16
47524;BME280;33253;42.144;25.884;2023-11-19T11:29:20;100308.19;;;11.27;66.06
47524;BME280;33253;42.144;25.884;2023-11-19T11:37:44;100286.38;;;10.91;66.98
47524;BME280;33253;42.144;25.884;2023-11-19T11:40:17;100316.56;;;11.20;67.56
47524;BME280;33253;42.144;25.884;2023-11-19T11:42:49;100222.94;;;10.46;67.17
47524;BME280;33253;42.144;25.884;2023-11-19T11:45:17;100322.66;;;10.94;67.54
47524;BME280;33253;42.144;25.884;2023-11-19T11:50:14;100320.31;;;11.02;68.19
47524;BME280;33253;42.144;25.884;2023-11-19T11:55:35;100316.78;;;11.00;68.11
47524;BME280;33253;42.144;25.884;2023-11-19T11:58:03;100325.94;;;10.90;67.93
47524;BME280;33253;42.144;25.884;2023-11-19T12:00:37;100308.38;;;10.80;67.50
47524;BME280;33253;42.144;25.884;2023-11-19T12:03:04;100316.38;;;10.88;67.25
47524;BME280;33253;42.144;25.884;2023-11-19T12:05:31;100313.72;;;10.84;66.36
47524;BME280;33253;42.144;25.884;2023-11-19T12:08:04;100317.69;;;10.75;67.40
47524;BME280;33253;42.144;25.884;2023-11-19T12:10:53;100313.06;;;10.64;66.54
47524;BME280;33253;42.144;25.884;2023-11-19T12:13:19;100241.84;;;10.21;67.08
47524;BME280;33253;42.144;25.884;2023-11-19T12:18:23;100304.00;;;10.77;67.70
47524;BME280;33253;42.144;25.884;2023-11-19T12:20:49;100305.97;;;10.59;66.72
47524;BME280;33253;42.144;25.884;2023-11-19T12:23:15;100306.09;;;10.62;68.28
47524;BME280;33253;42.144;25.884;2023-11-19T12:25:41;100240.34;;;10.28;68.85
47524;BME280;33253;42.144;25.884;2023-11-19T12:28:11;100215.06;;;10.17;66.95
47524;BME280;33253;42.144;25.884;2023-11-19T12:30:38;100290.25;;;10.52;68.73
47524;BME280;33253;42.144;25.884;2023-11-19T12:33:08;100199.50;;;9.90;68.71
47524;BME280;33253;42.144;25.884;2023-11-19T12:35:40;100279.34;;;10.35;67.60
47524;BME280;33253;42.144;25.884;2023-11-19T12:38:06;100306.66;;;10.30;68.34
47524;BME280;33253;42.144;25.884;2023-11-19T12:40:32;100291.88;;;10.25;68.35
47524;BME280;33253;42.144;25.884;2023-11-19T12:42:57;100318.34;;;10.43;68.32
47524;BME280;33253;42.144;25.884;2023-11-19T12:45:24;100201.66;;;9.78;68.94
47524;BME280;33253;42.144;25.884;2023-11-19T12:47:50;100292.47;;;10.42;68.82
47524;BME280;33253;42.144;25.884;2023-11-19T12:50:17;100304.66;;;10.46;67.58
47524;BME280;33253;42.144;25.884;2023-11-19T12:52:55;100291.34;;;10.35;68.09
47524;BME280;33253;42.144;25.884;2023-11-19T12:55:28;100222.41;;;9.81;67.80
47524;BME280;33253;42.144;25.884;2023-11-19T12:57:54;100299.22;;;10.14;68.24
47524;BME280;33253;42.144;25.884;2023-11-19T13:00:25;100301.75;;;10.12;68.13
47524;BME280;33253;42.144;25.884;2023-11-19T13:02:55;100248.50;;;9.66;67.83
47524;BME280;33253;42.144;25.884;2023-11-19T13:05:24;100297.91;;;10.01;68.71
47524;BME280;33253;42.144;25.884;2023-11-19T13:08:07;100280.63;;;9.98;69.03